sensor_id;sensor_type;location;lat;lon;timestamp;pressure;altitude;pressure_sealevel;temperature
40624;BMP280;26325;48.594;11.650;2023-01-05T00:01:58;97030.59;;;11.24
40624;BMP280;26325;48.594;11.650;2023-01-05T00:04:23;97025.56;;;11.18
40624;BMP280;26325;48.594;11.650;2023-01-05T00:06:49;97009.31;;;11.34
40624;BMP280;26325;48.594;11.650;2023-01-05T00:09:17;97001.84;;;11.37
40624;BMP280;26325;48.594;11.650;2023-01-05T00:11:43;96992.78;;;11.35
40624;BMP280;26325;48.594;11.650;2023-01-05T00:14:29;97022.53;;;11.37
40624;BMP280;26325;48.594;11.650;2023-01-05T00:17:22;97005.22;;;11.38
40624;BMP280;26325;48.594;11.650;2023-01-05T00:20:15;97002.34;;;11.34
40624;BMP280;26325;48.594;11.650;2023-01-05T00:23:00;96997.41;;;11.33
40624;BMP280;26325;48.594;11.650;2023-01-05T00:25:28;97011.91;;;11.34
40624;BMP280;26325;48.594;11.650;2023-01-05T00:27:54;97004.16;;;11.34
40624;BMP280;26325;48.594;11.650;2023-01-05T00:30:22;97001.72;;;11.43
40624;BMP280;26325;48.594;11.650;2023-01-05T00:32:51;97001.72;;;11.43
40624;BMP280;26325;48.594;11.650;2023-01-05T00:35:16;96997.47;;;11.38
40624;BMP280;26325;48.594;11.650;2023-01-05T00:37:43;96990.50;;;11.38
40624;BMP280;26325;48.594;11.650;2023-01-05T00:40:16;96997.16;;;11.50
40624;BMP280;26325;48.594;11.650;2023-01-05T00:42:43;96994.81;;;11.33
40624;BMP280;26325;48.594;11.650;2023-01-05T00:45:13;96997.47;;;11.38
40624;BMP280;26325;48.594;11.650;2023-01-05T00:47:41;96996.78;;;11.42
40624;BMP280;26325;48.594;11.650;2023-01-05T00:50:08;96987.75;;;11.44
40624;BMP280;26325;48.594;11.650;2023-01-05T00:52:34;96978.91;;;11.41
40624;BMP280;26325;48.594;11.650;2023-01-05T00:54:59;96985.81;;;11.51
40624;BMP280;26325;48.594;11.650;2023-01-05T00:57:25;96976.16;;;11.47
40624;BMP280;26325;48.594;11.650;2023-01-05T00:59:50;96973.50;;;11.42
40624;BMP280;26325;48.594;11.650;2023-01-05T01:02:18;96962.44;;;11.46
40624;BMP280;26325;48.594;11.650;2023-01-05T01:04:44;96958.38;;;11.50
40624;BMP280;26325;48.594;11.650;2023-01-05T01:07:09;96952.09;;;11.46
40624;BMP280;26325;48.594;11.650;2023-01-05T01:09:35;96958.84;;;11.47
40624;BMP280;26325;48.594;11.650;2023-01-05T01:12:01;96968.72;;;11.50
40624;BMP280;26325;48.594;11.650;2023-01-05T01:14:27;96982.66;;;11.49
40624;BMP280;26325;48.594;11.650;2023-01-05T01:16:52;96967.53;;;11.42
40624;BMP280;26325;48.594;11.650;2023-01-05T01:19:22;96975.38;;;11.46
40624;BMP280;26325;48.594;11.650;2023-01-05T01:21:48;96962.28;;;11.37
40624;BMP280;26325;48.594;11.650;2023-01-05T01:24:19;96952.41;;;11.34
40624;BMP280;26325;48.594;11.650;2023-01-05T01:26:45;96962.94;;;11.43
40624;BMP280;26325;48.594;11.650;2023-01-05T01:29:11;96957.47;;;11.29
40624;BMP280;26325;48.594;11.650;2023-01-05T01:31:36;96961.50;;;11.36
40624;BMP280;26325;48.594;11.650;2023-01-05T01:34:02;96960.53;;;11.26
40624;BMP280;26325;48.594;11.650;2023-01-05T01:36:28;96968.56;;;11.41
40624;BMP280;26325;48.594;11.650;2023-01-05T01:38:53;96961.50;;;11.36
40624;BMP280;26325;48.594;11.650;2023-01-05T01:41:19;96986.56;;;11.36
40624;BMP280;26325;48.594;11.650;2023-01-05T01:43:48;96970.03;;;11.37
40624;BMP280;26325;48.594;11.650;2023-01-05T01:46:14;96962.88;;;11.27
40624;BMP280;26325;48.594;11.650;2023-01-05T01:48:46;96961.41;;;11.47
40624;BMP280;26325;48.594;11.650;2023-01-05T01:51:15;96945.06;;;11.42
40624;BMP280;26325;48.594;11.650;2023-01-05T01:53:44;96937.84;;;11.44
40624;BMP280;26325;48.594;11.650;2023-01-05T01:56:13;96939.16;;;11.46
40624;BMP280;26325;48.594;11.650;2023-01-05T01:58:39;96918.56;;;11.35
40624;BMP280;26325;48.594;11.650;2023-01-05T02:01:04;96924.75;;;11.34
40624;BMP280;26325;48.594;11.650;2023-01-05T02:03:30;96907.44;;;11.35
40624;BMP280;26325;48.594;11.650;2023-01-05T02:05:56;96910.09;;;11.40
40624;BMP280;26325;48.594;11.650;2023-01-05T02:08:22;96909.13;;;11.45
40624;BMP280;26325;48.594;11.650;2023-01-05T02:11:35;96908.63;;;11.43
40624;BMP280;26325;48.594;11.650;2023-01-05T02:39:18;96860.56;;;11.15
40624;BMP280;26325;48.594;11.650;2023-01-05T02:41:53;96843.03;;;11.17
40624;BMP280;26325;48.594;11.650;2023-01-05T02:44:20;96836.28;;;11.16
40624;BMP280;26325;48.594;11.650;2023-01-05T02:46:57;96839.09;;;11.15
40624;BMP280;26325;48.594;11.650;2023-01-05T02:49:23;96837.22;;;11.10
40624;BMP280;26325;48.594;11.650;2023-01-05T02:51:49;96837.47;;;11.25
40624;BMP280;26325;48.594;11.650;2023-01-05T02:54:18;96825.06;;;11.27
40624;BMP280;26325;48.594;11.650;2023-01-05T02:59:39;96840.56;;;11.27
40624;BMP280;26325;48.594;11.650;2023-01-05T03:02:08;96846.47;;;11.23
40624;BMP280;26325;48.594;11.650;2023-01-05T03:04:43;96846.78;;;11.26
40624;BMP280;26325;48.594;11.650;2023-01-05T03:07:13;96850.25;;;11.31
40624;BMP280;26325;48.594;11.650;2023-01-05T03:09:40;96835.88;;;11.40
40624;BMP280;26325;48.594;11.650;2023-01-05T03:12:27;96843.47;;;11.46
40624;BMP280;26325;48.594;11.650;2023-01-05T03:15:25;96836.25;;;11.48
40624;BMP280;26325;48.594;11.650;2023-01-05T03:17:58;96846.13;;;11.51
40624;BMP280;26325;48.594;11.650;2023-01-05T03:20:27;96853.41;;;11.54
40624;BMP280;26325;48.594;11.650;2023-01-05T03:22:54;96843.59;;;11.56
40624;BMP280;26325;48.594;11.650;2023-01-05T03:25:39;96848.31;;;11.59
40624;BMP280;26325;48.594;11.650;2023-01-05T03:28:26;96855.22;;;11.75
40624;BMP280;26325;48.594;11.650;2023-01-05T03:31:22;96841.69;;;11.68
40624;BMP280;26325;48.594;11.650;2023-01-05T03:34:21;96855.03;;;11.60
40624;BMP280;26325;48.594;11.650;2023-01-05T03:37:12;96864.84;;;11.58
40624;BMP280;26325;48.594;11.650;2023-01-05T03:39:41;96867.44;;;11.58
40624;BMP280;26325;48.594;11.650;2023-01-05T03:42:09;96849.50;;;11.73
40624;BMP280;26325;48.594;11.650;2023-01-05T03:44:37;96860.81;;;11.67
40624;BMP280;26325;48.594;11.650;2023-01-05T03:47:02;96854.69;;;11.73
40624;BMP280;26325;48.594;11.650;2023-01-05T03:49:28;96858.38;;;11.77
40624;BMP280;26325;48.594;11.650;2023-01-05T03:51:56;96859.03;;;11.67
40624;BMP280;26325;48.594;11.650;2023-01-05T03:54:22;96859.34;;;11.55
40624;BMP280;26325;48.594;11.650;2023-01-05T03:56:47;96855.00;;;11.76
40624;BMP280;26325;48.594;11.650;2023-01-05T03:59:13;96848.72;;;11.72
40624;BMP280;26325;48.594;11.650;2023-01-05T04:01:38;96866.03;;;11.72
40624;BMP280;26325;48.594;11.650;2023-01-05T04:04:04;96854.63;;;11.68
40624;BMP280;26325;48.594;11.650;2023-01-05T04:06:29;96852.19;;;11.61
40624;BMP280;26325;48.594;11.650;2023-01-05T04:08:55;96845.50;;;11.44
40624;BMP280;26325;48.594;11.650;2023-01-05T04:11:21;96855.50;;;11.57
40624;BMP280;26325;48.594;11.650;2023-01-05T04:13:47;96841.91;;;11.45
40624;BMP280;26325;48.594;11.650;2023-01-05T04:16:13;96842.03;;;11.55
40624;BMP280;26325;48.594;11.650;2023-01-05T04:18:38;96831.22;;;11.58
40624;BMP280;26325;48.594;11.650;2023-01-05T04:21:04;96837.97;;;11.59
40624;BMP280;26325;48.594;11.650;2023-01-05T04:23:29;96829.66;;;11.57
40624;BMP280;26325;48.594;11.650;2023-01-05T04:25:55;96822.56;;;11.69
40624;BMP280;26325;48.594;11.650;2023-01-05T04:28:20;96815.81;;;11.68
40624;BMP280;26325;48.594;11.650;2023-01-05T04:30:50;96820.50;;;11.71
40624;BMP280;26325;48.594;11.650;2023-01-05T04:33:16;96819.91;;;11.64
40624;BMP280;26325;48.594;11.650;2023-01-05T04:35:42;96813.03;;;11.53
40624;BMP280;26325;48.594;11.650;2023-01-05T04:38:07;96849.88;;;11.60
40624;BMP280;26325;48.594;11.650;2023-01-05T04:40:33;96827.91;;;11.62
40624;BMP280;26325;48.594;11.650;2023-01-05T04:42:58;96823.03;;;11.66
40624;BMP280;26325;48.594;11.650;2023-01-05T04:45:24;96816.34;;;11.49
40624;BMP280;26325;48.594;11.650;2023-01-05T04:47:50;96828.16;;;11.61
40624;BMP280;26325;48.594;11.650;2023-01-05T04:50:16;96814.50;;;11.65
40624;BMP280;26325;48.594;11.650;2023-01-05T04:52:41;96828.06;;;11.56
40624;BMP280;26325;48.594;11.650;2023-01-05T04:55:07;96821.84;;;11.73
40624;BMP280;26325;48.594;11.650;2023-01-05T04:57:32;96834.41;;;11.65
40624;BMP280;26325;48.594;11.650;2023-01-05T04:59:58;96828.50;;;11.48
40624;BMP280;26325;48.594;11.650;2023-01-05T05:02:26;96839.03;;;11.63
40624;BMP280;26325;48.594;11.650;2023-01-05T05:04:51;96838.56;;;11.66
40624;BMP280;26325;48.594;11.650;2023-01-05T05:07:17;96830.47;;;11.62
40624;BMP280;26325;48.594;11.650;2023-01-05T05:09:42;96839.88;;;11.68
40624;BMP280;26325;48.594;11.650;2023-01-05T05:12:10;96847.81;;;11.62
40624;BMP280;26325;48.594;11.650;2023-01-05T05:14:38;96850.34;;;11.57
40624;BMP280;26325;48.594;11.650;2023-01-05T05:17:04;96851.13;;;11.58
40624;BMP280;26325;48.594;11.650;2023-01-05T05:19:32;96855.38;;;11.47
40624;BMP280;26325;48.594;11.650;2023-01-05T05:22:00;96850.16;;;11.43
40624;BMP280;26325;48.594;11.650;2023-01-05T05:24:25;96853.16;;;11.56
40624;BMP280;26325;48.594;11.650;2023-01-05T05:26:50;96855.09;;;11.44
40624;BMP280;26325;48.594;11.650;2023-01-05T05:29:16;96850.34;;;11.57
40624;BMP280;26325;48.594;11.650;2023-01-05T05:31:44;96847.84;;;11.46
40624;BMP280;26325;48.594;11.650;2023-01-05T05:34:09;96849.75;;;11.50
40624;BMP280;26325;48.594;11.650;2023-01-05T05:36:35;96864.28;;;11.56
40624;BMP280;26325;48.594;11.650;2023-01-05T05:39:02;96843.19;;;11.43
40624;BMP280;26325;48.594;11.650;2023-01-05T05:41:28;96867.44;;;11.58
40624;BMP280;26325;48.594;11.650;2023-01-05T05:43:55;96875.47;;;11.41
40624;BMP280;26325;48.594;11.650;2023-01-05T05:46:26;96869.41;;;11.51
40624;BMP280;26325;48.594;11.650;2023-01-05T05:48:53;96892.91;;;11.50
40624;BMP280;26325;48.594;11.650;2023-01-05T05:51:18;96883.53;;;11.44
40624;BMP280;26325;48.594;11.650;2023-01-05T05:53:46;96883.09;;;11.68
40624;BMP280;26325;48.594;11.650;2023-01-05T05:56:14;96879.47;;;11.69
40624;BMP280;26325;48.594;11.650;2023-01-05T05:58:56;96878.25;;;11.55
40624;BMP280;26325;48.594;11.650;2023-01-05T06:01:21;96878.56;;;11.59
40624;BMP280;26325;48.594;11.650;2023-01-05T06:03:46;96880.78;;;11.50
40624;BMP280;26325;48.594;11.650;2023-01-05T06:06:12;96886.59;;;11.41
40624;BMP280;26325;48.594;11.650;2023-01-05T06:08:37;96903.66;;;11.26
40624;BMP280;26325;48.594;11.650;2023-01-05T06:11:03;96898.16;;;11.23
40624;BMP280;26325;48.594;11.650;2023-01-05T06:13:28;96892.75;;;11.24
40624;BMP280;26325;48.594;11.650;2023-01-05T06:15:54;96895.13;;;11.25
40624;BMP280;26325;48.594;11.650;2023-01-05T06:18:19;96900.69;;;11.18
40624;BMP280;26325;48.594;11.650;2023-01-05T06:20:45;96908.50;;;11.23
40624;BMP280;26325;48.594;11.650;2023-01-05T06:23:10;96886.25;;;11.38
40624;BMP280;26325;48.594;11.650;2023-01-05T06:25:36;96892.22;;;11.22
40624;BMP280;26325;48.594;11.650;2023-01-05T06:28:01;96895.53;;;11.18
40624;BMP280;26325;48.594;11.650;2023-01-05T06:30:27;96898.50;;;11.26
40624;BMP280;26325;48.594;11.650;2023-01-05T06:32:53;96897.72;;;11.42
40624;BMP280;26325;48.594;11.650;2023-01-05T06:35:18;96904.78;;;11.30
40624;BMP280;26325;48.594;11.650;2023-01-05T06:37:44;96887.38;;;11.42
40624;BMP280;26325;48.594;11.650;2023-01-05T06:40:09;96896.69;;;11.26
40624;BMP280;26325;48.594;11.650;2023-01-05T06:42:37;96906.97;;;11.38
40624;BMP280;26325;48.594;11.650;2023-01-05T06:45:05;96899.50;;;11.25
40624;BMP280;26325;48.594;11.650;2023-01-05T06:47:31;96907.25;;;11.25
40624;BMP280;26325;48.594;11.650;2023-01-05T06:49:56;96909.84;;;11.25
40624;BMP280;26325;48.594;11.650;2023-01-05T06:52:22;96914.66;;;11.33
40624;BMP280;26325;48.594;11.650;2023-01-05T06:54:47;96903.66;;;11.26
40624;BMP280;26325;48.594;11.650;2023-01-05T06:57:13;96911.41;;;11.26
40624;BMP280;26325;48.594;11.650;2023-01-05T06:59:38;96907.72;;;11.22
40624;BMP280;26325;48.594;11.650;2023-01-05T07:02:04;96913.50;;;11.29
40624;BMP280;26325;48.594;11.650;2023-01-05T07:04:30;96923.56;;;11.42
40624;BMP280;26325;48.594;11.650;2023-01-05T07:06:55;96910.53;;;11.21
40624;BMP280;26325;48.594;11.650;2023-01-05T07:09:21;96904.13;;;11.07
40624;BMP280;26325;48.594;11.650;2023-01-05T07:11:46;96918.22;;;11.16
40624;BMP280;26325;48.594;11.650;2023-01-05T07:14:12;96916.34;;;11.11
40624;BMP280;26325;48.594;11.650;2023-01-05T07:16:37;96921.22;;;11.24
40624;BMP280;26325;48.594;11.650;2023-01-05T07:19:03;96919.09;;;11.37
40624;BMP280;26325;48.594;11.650;2023-01-05T07:21:28;96916.09;;;11.29
40624;BMP280;26325;48.594;11.650;2023-01-05T07:23:53;96939.22;;;11.19
40624;BMP280;26325;48.594;11.650;2023-01-05T07:26:19;96939.47;;;11.18
40624;BMP280;26325;48.594;11.650;2023-01-05T07:28:44;96935.09;;;11.18
40624;BMP280;26325;48.594;11.650;2023-01-05T07:31:10;96931.38;;;11.14
40624;BMP280;26325;48.594;11.650;2023-01-05T07:33:35;96936.78;;;10.97
40624;BMP280;26325;48.594;11.650;2023-01-05T07:36:02;96947.44;;;11.00
40624;BMP280;26325;48.594;11.650;2023-01-05T07:38:30;96952.28;;;10.97
40624;BMP280;26325;48.594;11.650;2023-01-05T07:40:59;96952.84;;;10.99
40624;BMP280;26325;48.594;11.650;2023-01-05T07:43:25;96954.72;;;11.03
40624;BMP280;26325;48.594;11.650;2023-01-05T07:45:55;96963.63;;;10.96
40624;BMP280;26325;48.594;11.650;2023-01-05T07:48:20;96965.53;;;11.00
40624;BMP280;26325;48.594;11.650;2023-01-05T07:50:46;96972.41;;;10.95
40624;BMP280;26325;48.594;11.650;2023-01-05T07:53:11;96970.97;;;10.87
40624;BMP280;26325;48.594;11.650;2023-01-05T07:55:36;96974.97;;;10.95
40624;BMP280;26325;48.594;11.650;2023-01-05T07:58:02;96982.56;;;10.85
40624;BMP280;26325;48.594;11.650;2023-01-05T08:00:28;96977.13;;;10.98
40624;BMP280;26325;48.594;11.650;2023-01-05T08:02:54;96991.97;;;10.91
40624;BMP280;26325;48.594;11.650;2023-01-05T08:05:20;96988.00;;;11.00
40624;BMP280;26325;48.594;11.650;2023-01-05T08:07:45;96994.09;;;10.94
40624;BMP280;26325;48.594;11.650;2023-01-05T08:10:11;96990.03;;;10.98
40624;BMP280;26325;48.594;11.650;2023-01-05T08:13:00;97002.78;;;10.88
40624;BMP280;26325;48.594;11.650;2023-01-05T08:15:44;96997.59;;;10.88
40624;BMP280;26325;48.594;11.650;2023-01-05T08:18:10;97001.19;;;10.87
40624;BMP280;26325;48.594;11.650;2023-01-05T08:20:38;97007.16;;;10.87
40624;BMP280;26325;48.594;11.650;2023-01-05T08:23:03;97009.06;;;10.92
40624;BMP280;26325;48.594;11.650;2023-01-05T08:25:29;97013.47;;;10.80
40624;BMP280;26325;48.594;11.650;2023-01-05T08:27:54;97013.56;;;10.85
40624;BMP280;26325;48.594;11.650;2023-01-05T08:30:19;97036.13;;;10.89
40624;BMP280;26325;48.594;11.650;2023-01-05T08:32:45;97046.66;;;10.99
40624;BMP280;26325;48.594;11.650;2023-01-05T08:35:13;97048.34;;;10.94
40624;BMP280;26325;48.594;11.650;2023-01-05T08:37:38;97058.19;;;10.81
40624;BMP280;26325;48.594;11.650;2023-01-05T08:40:04;97061.66;;;10.86
40624;BMP280;26325;48.594;11.650;2023-01-05T08:42:30;97068.38;;;10.87
40624;BMP280;26325;48.594;11.650;2023-01-05T08:44:56;97065.81;;;10.87
40624;BMP280;26325;48.594;11.650;2023-01-05T08:47:23;97073.69;;;10.81
40624;BMP280;26325;48.594;11.650;2023-01-05T08:49:51;97073.13;;;10.79
40624;BMP280;26325;48.594;11.650;2023-01-05T08:52:17;97081.03;;;10.61
40624;BMP280;26325;48.594;11.650;2023-01-05T08:54:42;97093.38;;;10.70
40624;BMP280;26325;48.594;11.650;2023-01-05T08:57:10;97089.13;;;10.65
40624;BMP280;26325;48.594;11.650;2023-01-05T08:59:35;97098.69;;;10.64
40624;BMP280;26325;48.594;11.650;2023-01-05T09:02:03;97113.53;;;10.46
40624;BMP280;26325;48.594;11.650;2023-01-05T09:04:31;97103.19;;;10.46
40624;BMP280;26325;48.594;11.650;2023-01-05T09:06:56;97107.44;;;10.52
40624;BMP280;26325;48.594;11.650;2023-01-05T09:09:22;97106.56;;;10.58
40624;BMP280;26325;48.594;11.650;2023-01-05T09:11:49;97120.47;;;10.57
40624;BMP280;26325;48.594;11.650;2023-01-05T09:14:14;97126.53;;;10.51
40624;BMP280;26325;48.594;11.650;2023-01-05T09:16:40;97128.44;;;10.44
40624;BMP280;26325;48.594;11.650;2023-01-05T09:19:05;97145.06;;;10.26
40624;BMP280;26325;48.594;11.650;2023-01-05T09:21:30;97144.63;;;10.28
40624;BMP280;26325;48.594;11.650;2023-01-05T09:23:56;97155.41;;;10.37
40624;BMP280;26325;48.594;11.650;2023-01-05T09:26:22;97148.78;;;10.29
40624;BMP280;26325;48.594;11.650;2023-01-05T09:28:47;97149.88;;;10.33
40624;BMP280;26325;48.594;11.650;2023-01-05T09:31:20;97150.03;;;10.38
40624;BMP280;26325;48.594;11.650;2023-01-05T09:33:46;97149.78;;;10.28
40624;BMP280;26325;48.594;11.650;2023-01-05T09:36:13;97155.53;;;10.30
40624;BMP280;26325;48.594;11.650;2023-01-05T09:38:39;97153.16;;;10.29
40624;BMP280;26325;48.594;11.650;2023-01-05T09:44:29;97156.28;;;10.53
40624;BMP280;26325;48.594;11.650;2023-01-05T09:47:04;97160.31;;;10.49
40624;BMP280;26325;48.594;11.650;2023-01-05T09:49:34;97158.53;;;10.61
40624;BMP280;26325;48.594;11.650;2023-01-05T09:52:01;97158.66;;;10.66
40624;BMP280;26325;48.594;11.650;2023-01-05T09:54:29;97161.09;;;10.72
40624;BMP280;26325;48.594;11.650;2023-01-05T09:56:57;97164.69;;;10.71
40624;BMP280;26325;48.594;11.650;2023-01-05T10:01:53;97161.19;;;10.77
40624;BMP280;26325;48.594;11.650;2023-01-05T10:04:23;97158.25;;;10.85
40624;BMP280;26325;48.594;11.650;2023-01-05T10:06:56;97158.06;;;10.75
40624;BMP280;26325;48.594;11.650;2023-01-05T10:09:26;97167.94;;;10.78
40624;BMP280;26325;48.594;11.650;2023-01-05T10:14:57;97170.09;;;10.81
40624;BMP280;26325;48.594;11.650;2023-01-05T10:17:25;97170.09;;;10.81
40624;BMP280;26325;48.594;11.650;2023-01-05T10:19:52;97167.16;;;10.89
40624;BMP280;26325;48.594;11.650;2023-01-05T10:30:15;97163.63;;;11.06
40624;BMP280;26325;48.594;11.650;2023-01-05T10:32:59;97173.25;;;11.10
40624;BMP280;26325;48.594;11.650;2023-01-05T10:46:40;97167.41;;;11.15
40624;BMP280;26325;48.594;11.650;2023-01-05T10:49:14;97163.91;;;11.21
40624;BMP280;26325;48.594;11.650;2023-01-05T10:51:40;97160.31;;;11.22
40624;BMP280;26325;48.594;11.650;2023-01-05T10:54:17;97164.28;;;11.13
40624;BMP280;26325;48.594;11.650;2023-01-05T10:56:44;97157.22;;;11.08
40624;BMP280;26325;48.594;11.650;2023-01-05T10:59:11;97160.44;;;11.15
40624;BMP280;26325;48.594;11.650;2023-01-05T11:01:42;97156.66;;;11.06
40624;BMP280;26325;48.594;11.650;2023-01-05T11:04:13;97161.00;;;11.17
40624;BMP280;26325;48.594;11.650;2023-01-05T11:06:40;97153.06;;;11.07
40624;BMP280;26325;48.594;11.650;2023-01-05T11:11:37;97147.16;;;11.23
40624;BMP280;26325;48.594;11.650;2023-01-05T11:14:05;97155.69;;;11.35
40624;BMP280;26325;48.594;11.650;2023-01-05T11:16:39;97150.75;;;11.33
40624;BMP280;26325;48.594;11.650;2023-01-05T11:19:16;97149.56;;;11.52
40624;BMP280;26325;48.594;11.650;2023-01-05T11:21:44;97150.25;;;11.63
40624;BMP280;26325;48.594;11.650;2023-01-05T11:24:26;97154.28;;;11.71
40624;BMP280;26325;48.594;11.650;2023-01-05T11:27:03;97154.94;;;11.50
40624;BMP280;26325;48.594;11.650;2023-01-05T11:29:30;97143.44;;;11.58
40624;BMP280;26325;48.594;11.650;2023-01-05T11:32:02;97146.81;;;11.58
40624;BMP280;26325;48.594;11.650;2023-01-05T11:37:01;97144.81;;;11.76
40624;BMP280;26325;48.594;11.650;2023-01-05T11:39:30;97149.47;;;11.63
40624;BMP280;26325;48.594;11.650;2023-01-05T11:42:20;97143.84;;;11.66
40624;BMP280;26325;48.594;11.650;2023-01-05T11:45:23;97149.34;;;11.69
40624;BMP280;26325;48.594;11.650;2023-01-05T11:47:57;97144.47;;;11.73
40624;BMP280;26325;48.594;11.650;2023-01-05T11:50:30;97159.38;;;11.66
40624;BMP280;26325;48.594;11.650;2023-01-05T11:52:57;97157.78;;;11.65
40624;BMP280;26325;48.594;11.650;2023-01-05T11:55:27;97160.94;;;11.67
40624;BMP280;26325;48.594;11.650;2023-01-05T11:58:16;97157.63;;;11.55
40624;BMP280;26325;48.594;11.650;2023-01-05T12:00:58;97152.00;;;11.58
40624;BMP280;26325;48.594;11.650;2023-01-05T12:06:02;97150.13;;;11.70
40624;BMP280;26325;48.594;11.650;2023-01-05T12:08:35;97155.38;;;11.75
40624;BMP280;26325;48.594;11.650;2023-01-05T12:11:20;97153.41;;;11.65
40624;BMP280;26325;48.594;11.650;2023-01-05T12:16:55;97159.28;;;11.61
40624;BMP280;26325;48.594;11.650;2023-01-05T12:30:35;97168.91;;;11.49
40624;BMP280;26325;48.594;11.650;2023-01-05T12:34:08;97169.94;;;11.37
40624;BMP280;26325;48.594;11.650;2023-01-05T12:39:28;97172.56;;;11.26
40624;BMP280;26325;48.594;11.650;2023-01-05T12:41:58;97185.16;;;11.34
40624;BMP280;26325;48.594;11.650;2023-01-05T12:47:33;97175.69;;;11.28
40624;BMP280;26325;48.594;11.650;2023-01-05T12:50:42;97172.56;;;11.26
40624;BMP280;26325;48.594;11.650;2023-01-05T12:53:16;97170.19;;;11.24
40624;BMP280;26325;48.594;11.650;2023-01-05T12:55:50;97159.06;;;11.24
40624;BMP280;26325;48.594;11.650;2023-01-05T12:58:24;97178.97;;;11.23
40624;BMP280;26325;48.594;11.650;2023-01-05T13:00:50;97177.53;;;11.16
40624;BMP280;26325;48.594;11.650;2023-01-05T13:03:27;97182.16;;;11.14
40624;BMP280;26325;48.594;11.650;2023-01-05T13:06:01;97180.34;;;11.15
40624;BMP280;26325;48.594;11.650;2023-01-05T13:08:36;97179.19;;;11.22
40624;BMP280;26325;48.594;11.650;2023-01-05T13:13:48;97173.47;;;11.20
40624;BMP280;26325;48.594;11.650;2023-01-05T13:16:20;97180.69;;;11.07
40624;BMP280;26325;48.594;11.650;2023-01-05T13:18:52;97181.84;;;11.00
40624;BMP280;26325;48.594;11.650;2023-01-05T13:21:20;97174.16;;;11.16
40624;BMP280;26325;48.594;11.650;2023-01-05T13:23:58;97179.91;;;11.06
40624;BMP280;26325;48.594;11.650;2023-01-05T13:26:25;97168.09;;;11.10
40624;BMP280;26325;48.594;11.650;2023-01-05T13:28:53;97169.47;;;11.02
40624;BMP280;26325;48.594;11.650;2023-01-05T13:53:45;97179.94;;;10.95
40624;BMP280;26325;48.594;11.650;2023-01-05T13:56:19;97180.38;;;11.03
40624;BMP280;26325;48.594;11.650;2023-01-05T13:59:31;97180.72;;;10.96
40624;BMP280;26325;48.594;11.650;2023-01-05T14:01:39;97182.09;;;10.87
40624;BMP280;26325;48.594;11.650;2023-01-05T14:04:14;97184.09;;;10.85
40624;BMP280;26325;48.594;11.650;2023-01-05T14:06:43;97181.28;;;10.98
40624;BMP280;26325;48.594;11.650;2023-01-05T14:09:28;97192.19;;;10.88
40624;BMP280;26325;48.594;11.650;2023-01-05T14:14:58;97196.59;;;10.88
40624;BMP280;26325;48.594;11.650;2023-01-05T14:17:53;97198.03;;;10.95
40624;BMP280;26325;48.594;11.650;2023-01-05T14:20:45;97185.13;;;10.84
40624;BMP280;26325;48.594;11.650;2023-01-05T14:26:04;97201.97;;;10.75
40624;BMP280;26325;48.594;11.650;2023-01-05T14:34:01;97206.13;;;10.76
40624;BMP280;26325;48.594;11.650;2023-01-05T14:36:40;97215.72;;;10.65
40624;BMP280;26325;48.594;11.650;2023-01-05T14:39:33;97218.06;;;10.55
40624;BMP280;26325;48.594;11.650;2023-01-05T14:44:40;97230.75;;;10.56
40624;BMP280;26325;48.594;11.650;2023-01-05T14:47:08;97221.53;;;10.60
40624;BMP280;26325;48.594;11.650;2023-01-05T14:49:54;97230.97;;;10.55
40624;BMP280;26325;48.594;11.650;2023-01-05T14:55:22;97235.81;;;10.63
40624;BMP280;26325;48.594;11.650;2023-01-05T14:57:50;97238.59;;;10.61
40624;BMP280;26325;48.594;11.650;2023-01-05T15:02:59;97239.84;;;10.59
40624;BMP280;26325;48.594;11.650;2023-01-05T15:05:26;97239.28;;;10.57
40624;BMP280;26325;48.594;11.650;2023-01-05T15:16:57;97253.41;;;10.43
40624;BMP280;26325;48.594;11.650;2023-01-05T15:28:05;97260.38;;;10.43
40624;BMP280;26325;48.594;11.650;2023-01-05T15:33:15;97266.00;;;10.51
40624;BMP280;26325;48.594;11.650;2023-01-05T15:35:53;97270.63;;;10.49
40624;BMP280;26325;48.594;11.650;2023-01-05T15:38:24;97272.50;;;10.42
40624;BMP280;26325;48.594;11.650;2023-01-05T15:41:08;97274.97;;;10.37
40624;BMP280;26325;48.594;11.650;2023-01-05T15:43:36;97284.63;;;10.42
40624;BMP280;26325;48.594;11.650;2023-01-05T15:46:04;97283.81;;;10.41
40624;BMP280;26325;48.594;11.650;2023-01-05T15:48:40;97286.63;;;10.28
40624;BMP280;26325;48.594;11.650;2023-01-05T15:51:07;97283.50;;;10.38
40624;BMP280;26325;48.594;11.650;2023-01-05T15:53:39;97273.81;;;10.33
40624;BMP280;26325;48.594;11.650;2023-01-05T15:56:40;97288.06;;;10.25
40624;BMP280;26325;48.594;11.650;2023-01-05T16:01:52;97294.59;;;10.27
40624;BMP280;26325;48.594;11.650;2023-01-05T16:04:17;97294.25;;;10.35
40624;BMP280;26325;48.594;11.650;2023-01-05T16:06:44;97294.81;;;10.26
40624;BMP280;26325;48.594;11.650;2023-01-05T16:11:44;97290.91;;;10.23
40624;BMP280;26325;48.594;11.650;2023-01-05T16:14:40;97297.63;;;10.35
40624;BMP280;26325;48.594;11.650;2023-01-05T16:17:17;97303.13;;;10.27
40624;BMP280;26325;48.594;11.650;2023-01-05T16:19:49;97293.81;;;10.27
40624;BMP280;26325;48.594;11.650;2023-01-05T16:22:30;97302.06;;;10.17
40624;BMP280;26325;48.594;11.650;2023-01-05T16:25:05;97304.81;;;10.22
40624;BMP280;26325;48.594;11.650;2023-01-05T16:27:38;97309.28;;;10.27
40624;BMP280;26325;48.594;11.650;2023-01-05T16:33:16;97309.03;;;10.17
40624;BMP280;26325;48.594;11.650;2023-01-05T16:35:48;97306.91;;;10.25
40624;BMP280;26325;48.594;11.650;2023-01-05T16:38:21;97316.31;;;10.08
40624;BMP280;26325;48.594;11.650;2023-01-05T16:48:43;97321.66;;;9.96
40624;BMP280;26325;48.594;11.650;2023-01-05T16:53:48;97328.88;;;10.05
40624;BMP280;26325;48.594;11.650;2023-01-05T16:59:03;97329.31;;;10.02
40624;BMP280;26325;48.594;11.650;2023-01-05T17:01:48;97341.91;;;10.10
40624;BMP280;26325;48.594;11.650;2023-01-05T17:04:14;97328.88;;;10.05